Time;durP1;ratioP1;P1;durP2;ratioP2;P2;SDS_P1;SDS_P2;PMS_P1;PMS_P2;Temp;Humidity;BMP_temperature;BMP_pressure;BME280_temperature;BME280_humidity;BME280_pressure;Samples;Min_cycle;Max_cycle;Signal;HPM_P1;HPM_P2
2023/12/13 00:00:36;;;;;;;;;;;;;;;7.18;100.00;99587.41;5069252;28;20004;-78
2023/12/13 00:03:01;;;;;;;;;;;;;;;7.12;100.00;99592.75;5072944;28;20273;-77
2023/12/13 00:05:26;;;;;;;;;;;;;;;7.07;100.00;99586.78;5070924;28;20018;-77
2023/12/13 00:07:52;;;;;;;;;;;;;;;7.07;100.00;99586.78;5053260;28;19921;-77
2023/12/13 00:10:17;;;;;;;;;;;;;;;7.06;100.00;99574.63;5050836;28;19933;-78
2023/12/13 00:12:43;;;;;;;;;;;;;;;7.11;100.00;99571.06;5074566;28;20288;-77
2023/12/13 00:15:08;;;;;;;;;;;;;;;7.04;100.00;99569.44;5060497;28;19943;-77
2023/12/13 00:17:33;;;;;;;;;;;;;;;6.99;100.00;99568.66;5070863;28;19920;-77
2023/12/13 00:19:59;;;;;;;;;;;;;;;6.91;100.00;99562.72;5080965;28;19924;-77
2023/12/13 00:22:24;;;;;;;;;;;;;;;6.89;100.00;99578.38;5054771;28;19920;-79
2023/12/13 00:24:49;;;;;;;;;;;;;;;6.84;100.00;99577.59;5053671;28;20019;-77
2023/12/13 00:27:15;;;;;;;;;;;;;;;6.81;100.00;99579.38;5069544;28;19932;-77
2023/12/13 00:29:40;;;;;;;;;;;;;;;6.81;100.00;99580.25;5053563;28;19947;-77
2023/12/13 00:32:06;;;;;;;;;;;;;;;6.83;100.00;99575.88;5071242;28;19913;-78
2023/12/13 00:34:31;;;;;;;;;;;;;;;6.90;100.00;99577.47;5057314;28;19935;-77
2023/12/13 00:36:56;;;;;;;;;;;;;;;6.90;100.00;99567.06;5084369;28;19928;-77
2023/12/13 00:39:22;;;;;;;;;;;;;;;6.92;100.00;99564.44;5055582;28;19985;-77
2023/12/13 00:41:49;;;;;;;;;;;;;;;6.90;100.00;99572.28;5074809;28;19967;-78
2023/12/13 00:44:14;;;;;;;;;;;;;;;6.88;100.00;99574.06;5074204;28;19943;-79
2023/12/13 00:46:40;;;;;;;;;;;;;;;6.90;100.00;99564.47;5071844;28;19928;-78
2023/12/13 00:49:05;;;;;;;;;;;;;;;6.91;100.00;99568.78;5050679;28;19924;-78
2023/12/13 00:51:30;;;;;;;;;;;;;;;6.90;100.00;99577.47;5068100;28;19960;-78
2023/12/13 00:53:56;;;;;;;;;;;;;;;6.93;100.00;99567.00;5074963;28;19958;-77
2023/12/13 00:56:21;;;;;;;;;;;;;;;6.90;100.00;99564.47;5053773;28;19975;-77
2023/12/13 00:58:47;;;;;;;;;;;;;;;6.89;100.00;99565.34;5070529;28;20011;-77
2023/12/13 01:01:12;;;;;;;;;;;;;;;6.89;100.00;99564.50;5081519;28;19912;-79
2023/12/13 01:03:38;;;;;;;;;;;;;;;6.93;100.00;99560.94;5068051;28;19925;-78
2023/12/13 01:06:06;;;;;;;;;;;;;;;6.99;100.00;99565.19;5058162;28;20023;-78
2023/12/13 01:08:32;;;;;;;;;;;;;;;7.02;100.00;99557.31;5069075;28;19969;-77
2023/12/13 01:10:57;;;;;;;;;;;;;;;7.11;100.00;99564.97;5073525;28;19928;-77
2023/12/13 01:13:22;;;;;;;;;;;;;;;7.13;100.00;99563.22;5053983;28;19921;-78
2023/12/13 01:15:48;;;;;;;;;;;;;;;7.02;100.00;99565.13;5069497;28;19924;-78
2023/12/13 01:18:13;;;;;;;;;;;;;;;7.00;100.00;99559.13;5062438;28;20050;-78
2023/12/13 01:20:39;;;;;;;;;;;;;;;6.99;100.00;99562.59;5058265;28;19921;-78
2023/12/13 01:23:05;;;;;;;;;;;;;;;7.01;100.00;99564.28;5083153;28;19916;-77
2023/12/13 01:25:30;;;;;;;;;;;;;;;7.06;100.00;99569.41;5061603;28;20294;-79
2023/12/13 01:27:57;;;;;;;;;;;;;;;6.98;100.00;99566.94;5043960;28;20437;-79
2023/12/13 01:30:23;;;;;;;;;;;;;;;6.96;100.00;99570.47;5056939;28;20011;-78
2023/12/13 01:32:48;;;;;;;;;;;;;;;6.92;100.00;99560.09;5065079;28;20439;-77
2023/12/13 01:35:13;;;;;;;;;;;;;;;6.97;100.00;99565.22;5065470;28;19920;-77
2023/12/13 01:37:39;;;;;;;;;;;;;;;6.96;100.00;99562.66;5072245;28;19924;-79
2023/12/13 01:40:05;;;;;;;;;;;;;;;6.94;100.00;99563.53;5049102;28;19943;-79
2023/12/13 01:42:30;;;;;;;;;;;;;;;6.89;100.00;99573.16;5085023;28;19946;-78
2023/12/13 01:44:55;;;;;;;;;;;;;;;6.90;100.00;99572.28;5060941;28;19916;-78
2023/12/13 01:47:21;;;;;;;;;;;;;;;6.89;100.00;99560.13;5069982;28;19993;-77
2023/12/13 01:49:46;;;;;;;;;;;;;;;6.97;100.00;99564.34;5070996;28;20335;-78
2023/12/13 01:52:13;;;;;;;;;;;;;;;6.93;100.00;99576.59;5092612;28;19989;-78
2023/12/13 01:54:39;;;;;;;;;;;;;;;6.93;100.00;99577.44;5092875;28;19927;-79
2023/12/13 01:57:05;;;;;;;;;;;;;;;6.90;100.00;99582.69;5077204;28;20305;-78
2023/12/13 01:59:33;;;;;;;;;;;;;;;7.00;100.00;99575.59;5056684;28;19925;-78
2023/12/13 02:01:59;;;;;;;;;;;;;;;7.00;100.00;99578.19;5073514;28;20293;-78
2023/12/13 02:04:27;;;;;;;;;;;;;;;6.98;100.00;99576.50;5064687;28;19916;-79
2023/12/13 02:06:52;;;;;;;;;;;;;;;6.92;100.00;99580.06;5092574;28;19955;-79
2023/12/13 02:09:18;;;;;;;;;;;;;;;6.94;100.00;99570.50;5056659;28;19980;-77
2023/12/13 02:11:43;;;;;;;;;;;;;;;6.99;100.00;99573.00;5067854;28;20290;-79
2023/12/13 02:14:09;;;;;;;;;;;;;;;6.98;100.00;99568.69;5052530;28;19924;-78
2023/12/13 02:16:35;;;;;;;;;;;;;;;6.99;100.00;99570.41;5068829;28;19913;-78
2023/12/13 02:19:00;;;;;;;;;;;;;;;6.91;100.00;99557.50;5047451;28;19947;-79
2023/12/13 02:21:25;;;;;;;;;;;;;;;6.92;100.00;99565.31;5072130;28;20009;-78
2023/12/13 02:23:53;;;;;;;;;;;;;;;7.01;100.00;99566.03;5070934;28;20199;-79
2023/12/13 02:26:19;;;;;;;;;;;;;;;6.94;100.00;99560.94;5071083;28;19920;-79
2023/12/13 02:28:44;;;;;;;;;;;;;;;6.91;100.00;99558.38;5058254;28;19924;-79
2023/12/13 02:31:10;;;;;;;;;;;;;;;6.88;100.00;99553.22;5086673;28;19924;-78
2023/12/13 02:33:39;;;;;;;;;;;;;;;6.89;100.00;99554.91;5079708;28;19917;-78
2023/12/13 02:36:05;;;;;;;;;;;;;;;6.88;100.00;99553.22;5071906;28;20001;-79
2023/12/13 02:38:31;;;;;;;;;;;;;;;6.88;100.00;99553.22;5069877;28;20023;-78
2023/12/13 02:40:56;;;;;;;;;;;;;;;6.93;100.00;99554.00;5072567;28;19999;-77
2023/12/13 02:43:22;;;;;;;;;;;;;;;6.97;100.00;99557.41;5088036;28;20423;-77
2023/12/13 02:45:47;;;;;;;;;;;;;;;7.05;100.00;99555.53;5091809;28;20289;-77
2023/12/13 02:48:12;;;;;;;;;;;;;;;7.07;100.00;99558.13;5069604;28;20022;-77
2023/12/13 02:50:38;;;;;;;;;;;;;;;6.98;100.00;99555.66;5070734;28;19931;-78
2023/12/13 02:53:04;;;;;;;;;;;;;;;6.99;100.00;99554.78;5054812;28;20297;-78
2023/12/13 02:55:30;;;;;;;;;;;;;;;7.03;100.00;99551.25;5054464;28;19942;-77
2023/12/13 02:57:55;;;;;;;;;;;;;;;6.90;100.00;99548.84;5050262;28;20393;-79
2023/12/13 03:00:21;;;;;;;;;;;;;;;6.85;100.00;99542.00;5104808;22;19950;-79
2023/12/13 03:02:46;;;;;;;;;;;;;;;6.86;100.00;99547.16;5100205;27;20272;-80
2023/12/13 03:05:12;;;;;;;;;;;;;;;6.89;100.00;99544.50;5140303;22;19924;-78
2023/12/13 03:07:40;;;;;;;;;;;;;;;6.95;100.00;99548.75;5073368;28;20340;-78
2023/12/13 03:10:05;;;;;;;;;;;;;;;6.88;100.00;99544.53;5115318;23;19951;-79
2023/12/13 03:12:31;;;;;;;;;;;;;;;6.89;100.00;99541.91;5102940;28;20360;-80
2023/12/13 03:14:56;;;;;;;;;;;;;;;6.95;100.00;99538.34;5099755;28;20364;-77
2023/12/13 03:17:22;;;;;;;;;;;;;;;6.98;100.00;99540.03;5091213;28;19965;-79
2023/12/13 03:19:47;;;;;;;;;;;;;;;7.03;100.00;99546.03;5120721;23;20431;-78
2023/12/13 03:22:15;;;;;;;;;;;;;;;7.00;100.00;99548.69;5080756;23;19925;-78
2023/12/13 03:24:41;;;;;;;;;;;;;;;7.05;100.00;99541.63;5124217;22;19981;-80
2023/12/13 03:27:06;;;;;;;;;;;;;;;7.08;100.00;99544.19;5056563;28;19924;-79
2023/12/13 03:29:32;;;;;;;;;;;;;;;7.08;100.00;99534.63;5057625;28;20005;-80
2023/12/13 03:31:58;;;;;;;;;;;;;;;7.08;100.00;99544.19;5074111;28;19912;-79
2023/12/13 03:34:24;;;;;;;;;;;;;;;7.16;100.00;99529.28;5099075;22;19924;-79
2023/12/13 03:36:50;;;;;;;;;;;;;;;7.16;100.00;99533.63;5091123;28;20011;-79
2023/12/13 03:39:16;;;;;;;;;;;;;;;7.29;100.00;99532.50;5253815;23;19978;-78
2023/12/13 03:41:41;;;;;;;;;;;;;;;7.32;100.00;99534.19;5069965;28;20364;-77
2023/12/13 03:44:06;;;;;;;;;;;;;;;7.23;100.00;99537.84;5112332;23;20015;-79
2023/12/13 03:46:32;;;;;;;;;;;;;;;7.26;100.00;99533.41;5073934;28;20023;-80
2023/12/13 03:48:57;;;;;;;;;;;;;;;7.17;100.00;99532.72;5115117;22;19931;-80
2023/12/13 03:51:23;;;;;;;;;;;;;;;7.18;100.00;99524.03;5077362;28;19927;-79
2023/12/13 03:53:48;;;;;;;;;;;;;;;7.33;100.00;99522.91;5094742;28;20007;-79
2023/12/13 03:56:13;;;;;;;;;;;;;;;7.20;100.00;99528.34;5093796;28;20008;-79
2023/12/13 03:58:39;;;;;;;;;;;;;;;7.25;100.00;99521.28;5093812;28;19965;-79
2023/12/13 04:01:04;;;;;;;;;;;;;;;7.24;100.00;99522.19;5090695;28;20390;-79
2023/12/13 04:03:32;;;;;;;;;;;;;;;7.30;100.00;99518.59;5073965;28;19970;-79
2023/12/13 04:05:57;;;;;;;;;;;;;;;7.17;100.00;99517.97;5090855;28;19957;-79
2023/12/13 04:08:23;;;;;;;;;;;;;;;7.24;100.00;99518.69;5073881;28;19916;-78
2023/12/13 04:10:48;;;;;;;;;;;;;;;7.19;100.00;99518.78;5084560;28;20340;-79
2023/12/13 04:13:14;;;;;;;;;;;;;;;7.20;100.00;99520.53;5056224;28;19920;-79
2023/12/13 04:15:39;;;;;;;;;;;;;;;7.23;100.00;99522.22;5074233;28;19923;-79
2023/12/13 04:18:04;;;;;;;;;;;;;;;7.21;100.00;99511.81;5062210;28;19941;-79
2023/12/13 04:20:30;;;;;;;;;;;;;;;7.27;100.00;99514.31;5100651;28;19927;-78
2023/12/13 04:22:55;;;;;;;;;;;;;;;7.22;100.00;99512.66;5097287;28;19923;-79
2023/12/13 04:25:21;;;;;;;;;;;;;;;7.25;100.00;99526.47;5094098;28;19916;-79
2023/12/13 04:27:47;;;;;;;;;;;;;;;7.20;100.00;99517.06;5090923;28;20004;-79
2023/12/13 04:30:13;;;;;;;;;;;;;;;7.35;100.00;99515.91;5092812;28;19926;-79
2023/12/13 04:32:38;;;;;;;;;;;;;;;7.25;100.00;99516.06;5101567;28;19919;-79
2023/12/13 04:35:05;;;;;;;;;;;;;;;7.25;100.00;99516.06;5094010;28;20015;-79
2023/12/13 04:37:31;;;;;;;;;;;;;;;7.20;100.00;99512.69;5095935;28;19926;-79
2023/12/13 04:39:56;;;;;;;;;;;;;;;7.16;100.00;99511.03;5097710;28;19916;-79
2023/12/13 04:42:25;;;;;;;;;;;;;;;7.12;100.00;99514.59;5091825;28;19981;-78
2023/12/13 04:44:50;;;;;;;;;;;;;;;7.21;100.00;99518.75;5094353;28;20015;-79
2023/12/13 04:47:16;;;;;;;;;;;;;;;7.16;100.00;99513.66;5093659;28;19998;-79
2023/12/13 04:49:41;;;;;;;;;;;;;;;7.18;100.00;99517.06;5081357;28;19924;-80
2023/12/13 04:52:06;;;;;;;;;;;;;;;7.21;100.00;99511.81;5073311;28;20401;-79
2023/12/13 04:54:32;;;;;;;;;;;;;;;7.18;100.00;99514.47;5073620;28;19916;-79
2023/12/13 04:56:57;;;;;;;;;;;;;;;7.20;100.00;99507.50;5072471;28;20019;-79
2023/12/13 04:59:23;;;;;;;;;;;;;;;7.16;100.00;99505.84;5082296;28;19938;-79
2023/12/13 05:01:48;;;;;;;;;;;;;;;7.25;100.00;99510.00;5093484;28;20197;-79
2023/12/13 05:04:13;;;;;;;;;;;;;;;7.19;100.00;99508.38;5110714;28;19919;-79
2023/12/13 05:06:39;;;;;;;;;;;;;;;7.26;100.00;99511.72;5093334;28;19926;-79
2023/12/13 05:09:05;;;;;;;;;;;;;;;7.32;100.00;99508.16;5089966;28;19947;-79
2023/12/13 05:11:30;;;;;;;;;;;;;;;7.24;100.00;99503.94;5075071;28;20022;-79
2023/12/13 05:13:56;;;;;;;;;;;;;;;7.19;100.00;99505.75;5076702;28;20022;-79
2023/12/13 05:16:21;;;;;;;;;;;;;;;7.29;100.00;99502.09;5093597;28;19923;-79
2023/12/13 05:18:46;;;;;;;;;;;;;;;7.21;100.00;99497.91;5094230;28;19919;-79
2023/12/13 05:21:12;;;;;;;;;;;;;;;7.21;100.00;99495.31;5093647;28;19919;-79
2023/12/13 05:23:38;;;;;;;;;;;;;;;7.19;100.00;99505.75;5098089;27;19919;-79
2023/12/13 05:26:04;;;;;;;;;;;;;;;7.22;100.00;99497.88;5080354;28;19920;-80
2023/12/13 05:28:29;;;;;;;;;;;;;;;7.19;100.00;99495.34;5092705;28;20300;-79
2023/12/13 05:30:54;;;;;;;;;;;;;;;7.21;100.00;99496.19;5095886;28;19963;-79
2023/12/13 05:33:20;;;;;;;;;;;;;;;7.22;100.00;99505.69;5113772;28;19919;-79
2023/12/13 05:35:45;;;;;;;;;;;;;;;7.26;100.00;99494.34;5082533;28;19916;-79
2023/12/13 05:38:11;;;;;;;;;;;;;;;7.24;100.00;99496.13;5076245;28;19985;-79
2023/12/13 05:40:36;;;;;;;;;;;;;;;7.24;100.00;99498.72;5086926;28;19916;-80
2023/12/13 05:43:01;;;;;;;;;;;;;;;7.28;100.00;99499.50;5095616;28;20322;-79
2023/12/13 05:45:27;;;;;;;;;;;;;;;7.24;100.00;99493.53;5096877;28;19920;-80
2023/12/13 05:47:55;;;;;;;;;;;;;;;7.27;100.00;99498.66;5104533;28;20015;-80
2023/12/13 05:50:20;;;;;;;;;;;;;;;7.25;100.00;99491.75;5106307;28;20087;-80
2023/12/13 05:52:45;;;;;;;;;;;;;;;7.27;100.00;99492.59;5092861;28;19978;-79
2023/12/13 05:55:11;;;;;;;;;;;;;;;7.28;100.00;99495.19;5076352;28;19970;-80
2023/12/13 05:57:36;;;;;;;;;;;;;;;7.27;100.00;99496.06;5076888;28;19921;-77
2023/12/13 06:00:06;;;;;;;;;;;;;;;7.26;100.00;99502.16;5095152;28;20280;-78
2023/12/13 06:02:31;;;;;;;;;;;;;;;7.29;100.00;99503.84;5103876;28;19942;-78
2023/12/13 06:04:56;;;;;;;;;;;;;;;7.28;100.00;99504.72;5110378;28;19916;-78
2023/12/13 06:07:22;;;;;;;;;;;;;;;7.27;100.00;99503.88;5095292;28;19926;-80
2023/12/13 06:09:47;;;;;;;;;;;;;;;7.26;100.00;99503.91;5086756;28;19923;-79
2023/12/13 06:12:16;;;;;;;;;;;;;;;7.22;100.00;99505.69;5087518;28;19923;-79
2023/12/13 06:14:41;;;;;;;;;;;;;;;7.19;100.00;99502.31;5081146;28;20408;-78
2023/12/13 06:17:06;;;;;;;;;;;;;;;7.21;100.00;99509.22;5093656;28;19916;-77
2023/12/13 06:19:32;;;;;;;;;;;;;;;7.16;100.00;99512.78;5086377;28;19927;-78
2023/12/13 06:21:58;;;;;;;;;;;;;;;7.17;100.00;99515.38;5088463;28;20381;-78
2023/12/13 06:24:23;;;;;;;;;;;;;;;7.13;100.00;99513.72;5095375;28;20056;-79
2023/12/13 06:26:48;;;;;;;;;;;;;;;7.14;100.00;99525.84;5094600;28;19924;-78
2023/12/13 06:29:14;;;;;;;;;;;;;;;7.18;100.00;99513.63;5112606;28;19916;-78
2023/12/13 06:31:39;;;;;;;;;;;;;;;7.23;100.00;99517.00;5091009;28;19920;-78
2023/12/13 06:34:04;;;;;;;;;;;;;;;7.28;100.00;99521.25;5075743;28;19934;-78
2023/12/13 06:36:30;;;;;;;;;;;;;;;7.27;100.00;99522.13;5090174;28;19920;-77
2023/12/13 06:38:55;;;;;;;;;;;;;;;7.25;100.00;99518.66;5078524;28;19930;-78
2023/12/13 06:41:20;;;;;;;;;;;;;;;7.28;100.00;99521.25;5083866;28;19985;-78
2023/12/13 06:43:47;;;;;;;;;;;;;;;7.27;100.00;99523.88;5091426;28;20023;-78
2023/12/13 06:46:12;;;;;;;;;;;;;;;7.22;100.00;99523.94;5107899;28;19955;-77
2023/12/13 06:48:38;;;;;;;;;;;;;;;7.22;100.00;99525.69;5075387;28;20008;-77
2023/12/13 06:51:03;;;;;;;;;;;;;;;7.20;100.00;99520.53;5077010;28;20293;-78
2023/12/13 06:53:29;;;;;;;;;;;;;;;7.28;100.00;99533.38;5078235;28;19971;-77
2023/12/13 06:55:55;;;;;;;;;;;;;;;7.23;100.00;99523.06;5084621;28;19920;-77
2023/12/13 06:58:20;;;;;;;;;;;;;;;7.23;100.00;99525.66;5118502;27;19965;-78
2023/12/13 07:00:46;;;;;;;;;;;;;;;7.26;100.00;99519.53;5093650;28;19974;-78
2023/12/13 07:03:11;;;;;;;;;;;;;;;7.20;100.00;99517.06;5093233;28;19920;-79
2023/12/13 07:05:37;;;;;;;;;;;;;;;7.18;100.00;99519.66;5090088;28;19915;-79
2023/12/13 07:08:02;;;;;;;;;;;;;;;7.28;100.00;99529.06;5094119;28;20396;-79
2023/12/13 07:10:28;;;;;;;;;;;;;;;7.24;100.00;99529.13;5109971;27;19958;-79
2023/12/13 07:12:53;;;;;;;;;;;;;;;7.19;100.00;99524.00;5079095;28;20442;-79
2023/12/13 07:15:21;;;;;;;;;;;;;;;7.18;100.00;99529.25;5092014;28;20015;-79
2023/12/13 07:17:46;;;;;;;;;;;;;;;7.26;100.00;99527.38;5093313;28;19916;-78
2023/12/13 07:20:12;;;;;;;;;;;;;;;7.19;100.00;99531.81;5091815;28;20374;-78
2023/12/13 07:22:37;;;;;;;;;;;;;;;7.20;100.00;99538.75;5068647;28;19920;-78
2023/12/13 07:25:06;;;;;;;;;;;;;;;7.18;100.00;99537.06;5086810;28;19927;-79
2023/12/13 07:27:31;;;;;;;;;;;;;;;7.24;100.00;99535.22;5072266;28;19981;-77
2023/12/13 07:29:57;;;;;;;;;;;;;;;7.20;100.00;99540.50;5094845;27;20396;-77
2023/12/13 07:32:22;;;;;;;;;;;;;;;7.17;100.00;99538.81;5090954;28;19959;-77
2023/12/13 07:34:48;;;;;;;;;;;;;;;7.12;100.00;99538.03;5074864;28;19963;-77
2023/12/13 07:37:14;;;;;;;;;;;;;;;7.10;100.00;99547.63;5082117;28;19923;-76
2023/12/13 07:39:40;;;;;;;;;;;;;;;7.07;100.00;99547.69;5096717;28;19919;-77
2023/12/13 07:42:07;;;;;;;;;;;;;;;7.06;100.00;99546.81;5101872;28;19981;-76
2023/12/13 07:44:33;;;;;;;;;;;;;;;7.07;100.00;99537.28;5080436;28;19931;-76
2023/12/13 07:46:59;;;;;;;;;;;;;;;7.04;100.00;99543.41;5094104;28;19920;-76
2023/12/13 07:49:24;;;;;;;;;;;;;;;7.05;100.00;99539.03;5098683;28;19924;-79
2023/12/13 07:51:50;;;;;;;;;;;;;;;7.08;100.00;99536.38;5088633;28;19935;-78
2023/12/13 07:54:16;;;;;;;;;;;;;;;7.08;100.00;99544.19;5093646;28;19923;-79
2023/12/13 07:56:41;;;;;;;;;;;;;;;7.11;100.00;99546.72;5110138;28;19966;-79
2023/12/13 07:59:07;;;;;;;;;;;;;;;7.19;100.00;99542.25;5094672;28;20309;-79
2023/12/13 08:01:32;;;;;;;;;;;;;;;7.12;100.00;99545.84;5094088;28;19916;-79
2023/12/13 08:03:58;;;;;;;;;;;;;;;7.17;100.00;99544.03;5075417;28;19962;-76
2023/12/13 08:06:24;;;;;;;;;;;;;;;7.12;100.00;99545.84;5074009;28;20339;-76
2023/12/13 08:08:51;;;;;;;;;;;;;;;7.16;100.00;99547.50;5090348;28;19920;-76
2023/12/13 08:11:16;;;;;;;;;;;;;;;7.23;100.00;99541.31;5082087;28;19930;-76
2023/12/13 08:13:42;;;;;;;;;;;;;;;7.16;100.00;99546.66;5103601;28;20003;-77
2023/12/13 08:16:07;;;;;;;;;;;;;;;7.21;100.00;99545.69;5090498;28;20300;-76
2023/12/13 08:18:33;;;;;;;;;;;;;;;7.25;100.00;99547.31;5076672;28;19961;-76
2023/12/13 08:20:58;;;;;;;;;;;;;;;7.23;100.00;99549.13;5086090;28;20023;-76
2023/12/13 08:23:23;;;;;;;;;;;;;;;7.22;100.00;99547.38;5065725;28;19973;-76
2023/12/13 08:25:51;;;;;;;;;;;;;;;7.24;100.00;99547.34;5077483;28;19919;-77
2023/12/13 08:28:16;;;;;;;;;;;;;;;7.22;100.00;99550.00;5081384;28;20043;-77
2023/12/13 08:30:42;;;;;;;;;;;;;;;7.35;100.00;99547.16;5077401;28;20018;-79
2023/12/13 08:33:08;;;;;;;;;;;;;;;7.26;100.00;99559.47;5077597;28;20384;-79
2023/12/13 08:35:34;;;;;;;;;;;;;;;7.26;100.00;99558.63;5089212;28;20259;-79
2023/12/13 08:37:59;;;;;;;;;;;;;;;7.28;100.00;99560.31;5084892;28;19919;-79
2023/12/13 08:40:24;;;;;;;;;;;;;;;7.27;100.00;99563.81;5092704;28;20448;-79
2023/12/13 08:42:50;;;;;;;;;;;;;;;7.29;100.00;99563.78;5075775;28;20316;-79
2023/12/13 08:45:15;;;;;;;;;;;;;;;7.27;100.00;99566.41;5091075;28;20415;-79
2023/12/13 08:47:40;;;;;;;;;;;;;;;7.31;100.00;99561.13;5077603;28;19916;-77
2023/12/13 08:50:06;;;;;;;;;;;;;;;7.26;100.00;99567.28;5100139;28;20010;-77
2023/12/13 08:52:32;;;;;;;;;;;;;;;7.35;100.00;99570.63;5089539;28;19924;-79
2023/12/13 08:54:58;;;;;;;;;;;;;;;7.32;100.00;99562.88;5086219;28;19920;-79
2023/12/13 08:57:23;;;;;;;;;;;;;;;7.31;100.00;99569.81;5109127;28;19916;-79
2023/12/13 08:59:48;;;;;;;;;;;;;;;7.44;100.00;99567.81;5094491;28;20011;-77
2023/12/13 09:02:14;;;;;;;;;;;;;;;7.40;100.00;99571.41;5084789;28;19920;-78
2023/12/13 09:04:39;;;;;;;;;;;;;;;7.48;100.00;99571.25;5077425;28;19942;-77
2023/12/13 09:07:04;;;;;;;;;;;;;;;7.44;100.00;99578.25;5078788;28;19920;-77
2023/12/13 09:09:32;;;;;;;;;;;;;;;7.46;100.00;99581.72;5097509;28;19923;-77
2023/12/13 09:11:58;;;;;;;;;;;;;;;7.45;100.00;99582.59;5093500;28;19919;-77
2023/12/13 09:14:23;;;;;;;;;;;;;;;7.61;100.00;99577.94;5097207;28;20341;-78
2023/12/13 09:16:49;;;;;;;;;;;;;;;7.54;100.00;99592.84;5097538;28;20296;-79
2023/12/13 09:19:14;;;;;;;;;;;;;;;7.59;100.00;99598.81;5077735;28;19916;-79
2023/12/13 09:21:40;;;;;;;;;;;;;;;7.67;100.00;99587.38;5081362;28;20369;-77
2023/12/13 09:24:06;;;;;;;;;;;;;;;7.73;100.00;99592.47;5085367;28;19997;-77
2023/12/13 09:26:35;;;;;;;;;;;;;;;7.83;100.00;99594.03;5113740;28;19912;-78
2023/12/13 09:29:01;;;;;;;;;;;;;;;7.92;100.00;99591.22;5083128;28;20049;-77
2023/12/13 09:31:26;;;;;;;;;;;;;;;7.97;100.00;99597.19;5082546;28;20011;-77
2023/12/13 09:33:52;;;;;;;;;;;;;;;8.17;100.00;99595.91;5094900;28;19957;-78
2023/12/13 09:36:18;;;;;;;;;;;;;;;8.23;100.00;99603.63;5068865;28;20026;-78
2023/12/13 09:38:43;;;;;;;;;;;;;;;8.26;100.00;99598.31;5092485;28;20007;-78
2023/12/13 09:41:08;;;;;;;;;;;;;;;8.42;100.00;99600.56;5093425;28;19920;-78
2023/12/13 09:43:36;;;;;;;;;;;;;;;8.53;100.00;99614.25;5077692;28;19926;-78
2023/12/13 09:46:04;;;;;;;;;;;;;;;8.60;100.00;99605.41;5086575;28;20006;-78
2023/12/13 09:48:30;;;;;;;;;;;;;;;8.72;100.00;99609.50;5093940;28;20281;-77
2023/12/13 09:50:58;;;;;;;;;;;;;;;8.84;100.00;99616.16;5076432;28;20309;-79
2023/12/13 09:53:24;;;;;;;;;;;;;;;8.82;100.00;99612.72;5109310;28;19929;-78
2023/12/13 09:55:52;;;;;;;;;;;;;;;8.86;100.00;99616.13;5093696;28;19919;-80
2023/12/13 09:58:17;;;;;;;;;;;;;;;8.78;100.00;99613.72;5102243;28;20431;-78
2023/12/13 10:00:43;;;;;;;;;;;;;;;8.75;100.00;99621.59;5090507;28;19916;-79
2023/12/13 10:03:08;;;;;;;;;;;;;;;8.74;100.00;99623.34;5071026;28;19970;-78
2023/12/13 10:05:36;;;;;;;;;;;;;;;8.67;100.00;99627.00;5078096;28;19916;-79
2023/12/13 10:08:02;;;;;;;;;;;;;;;8.58;100.00;99628.09;5093814;28;19945;-78
2023/12/13 10:10:31;;;;;;;;;;;;;;;8.57;100.00;99631.59;5096623;28;20345;-78
2023/12/13 10:12:57;;;;;;;;;;;;;;;8.61;100.00;99633.22;5087831;28;19912;-78
2023/12/13 10:15:24;;;;;;;;;;;;;;;8.44;100.00;99631.00;5083668;28;19959;-79
2023/12/13 10:17:50;;;;;;;;;;;;;;;8.46;100.00;99641.41;5088969;28;19920;-79
2023/12/13 10:20:15;;;;;;;;;;;;;;;8.48;100.00;99640.47;5092607;28;19981;-80
2023/12/13 10:22:40;;;;;;;;;;;;;;;8.45;100.00;99640.56;5087333;28;19966;-79
2023/12/13 10:25:06;;;;;;;;;;;;;;;8.52;100.00;99641.28;5097005;28;19923;-77
2023/12/13 10:27:31;;;;;;;;;;;;;;;8.62;100.00;99640.19;5083206;28;20301;-78
2023/12/13 10:29:57;;;;;;;;;;;;;;;8.67;100.00;99642.69;5081571;28;19916;-80
2023/12/13 10:32:22;;;;;;;;;;;;;;;8.72;100.00;99638.22;5083060;28;19916;-80
2023/12/13 10:34:47;;;;;;;;;;;;;;;8.69;100.00;99645.25;5089328;28;19916;-81
2023/12/13 10:37:13;;;;;;;;;;;;;;;8.68;100.00;99644.41;5091951;28;19919;-81
2023/12/13 10:39:42;;;;;;;;;;;;;;;8.68;100.00;99641.78;5089393;28;19920;-80
2023/12/13 10:42:08;;;;;;;;;;;;;;;8.66;100.00;99638.34;5083003;28;20004;-80
2023/12/13 10:44:35;;;;;;;;;;;;;;;8.75;100.00;99642.50;5095276;28;19974;-80
2023/12/13 10:47:01;;;;;;;;;;;;;;;8.79;100.00;99641.53;5098020;28;19927;-78
2023/12/13 10:49:29;;;;;;;;;;;;;;;8.90;100.00;99633.44;5092454;28;19924;-79
2023/12/13 10:51:56;;;;;;;;;;;;;;;9.00;100.00;99640.16;5105641;28;19924;-79
2023/12/13 10:54:21;;;;;;;;;;;;;;;9.10;100.00;99638.19;5102923;28;20044;-78
2023/12/13 10:56:46;;;;;;;;;;;;;;;9.15;100.00;99631.94;5069446;28;19924;-78
2023/12/13 10:59:12;;;;;;;;;;;;;;;9.11;100.00;99634.69;5089449;28;20408;-80
2023/12/13 11:01:39;;;;;;;;;;;;;;;9.13;100.00;99640.72;5058279;28;19916;-80
2023/12/13 11:04:08;;;;;;;;;;;;;;;9.14;100.00;99642.44;5067914;28;19920;-77
2023/12/13 11:06:35;;;;;;;;;;;;;;;9.01;100.00;99640.13;5089663;28;20373;-78
2023/12/13 11:09:11;;;;;;;;;;;;;;;8.99;100.00;99644.53;5091827;28;19912;-78
2023/12/13 11:11:36;;;;;;;;;;;;;;;8.88;100.00;99640.44;5102035;28;19917;-79
2023/12/13 11:14:02;;;;;;;;;;;;;;;8.81;100.00;99645.81;5077031;28;19921;-79
2023/12/13 11:16:27;;;;;;;;;;;;;;;8.85;100.00;99646.63;5064179;28;19970;-77
2023/12/13 11:18:53;;;;;;;;;;;;;;;8.84;100.00;99650.13;5072420;28;20421;-79
2023/12/13 11:21:25;;;;;;;;;;;;;;;8.84;100.00;99650.97;5088886;28;19920;-77
2023/12/13 11:23:51;;;;;;;;;;;;;;;8.87;100.00;99647.44;5071049;28;19913;-79
2023/12/13 11:26:18;;;;;;;;;;;;;;;8.90;100.00;99649.97;5063064;28;19974;-79
2023/12/13 11:28:47;;;;;;;;;;;;;;;8.96;100.00;99651.59;5086628;28;20263;-79
2023/12/13 11:31:13;;;;;;;;;;;;;;;9.18;100.00;99660.63;5102777;28;19932;-79
2023/12/13 11:33:38;;;;;;;;;;;;;;;9.36;100.00;99654.03;5071349;28;19916;-79
2023/12/13 11:36:12;;;;;;;;;;;;;;;9.53;100.00;99660.59;5060854;28;19921;-79
2023/12/13 11:38:38;;;;;;;;;;;;;;;9.59;100.00;99657.81;5060653;28;20374;-78
2023/12/13 11:41:03;;;;;;;;;;;;;;;9.63;100.00;99661.22;5067162;28;19921;-78
2023/12/13 11:43:29;;;;;;;;;;;;;;;9.63;100.00;99661.22;5107516;28;19966;-80
2023/12/13 11:45:54;;;;;;;;;;;;;;;9.64;100.00;99657.69;5108786;28;19912;-80
2023/12/13 11:48:20;;;;;;;;;;;;;;;9.65;100.00;99662.03;5096043;28;19916;-80
2023/12/13 11:50:45;;;;;;;;;;;;;;;9.67;100.00;99663.72;5071546;28;19932;-80
2023/12/13 11:53:11;;;;;;;;;;;;;;;9.65;100.00;99660.25;5077586;28;19924;-80
2023/12/13 11:55:37;;;;;;;;;;;;;;;9.63;100.00;99659.47;5074622;28;19912;-80
2023/12/13 11:58:03;;;;;;;;;;;;;;;9.63;100.00;99656.84;5081674;28;19927;-79
2023/12/13 12:00:29;;;;;;;;;;;;;;;9.62;100.00;99662.97;5101847;27;19924;-79
2023/12/13 12:02:56;;;;;;;;;;;;;;;9.54;100.00;99663.19;5076767;28;20011;-79
2023/12/13 12:05:23;;;;;;;;;;;;;;;9.53;100.00;99676.31;5101711;28;20347;-81
2023/12/13 12:07:56;;;;;;;;;;;;;;;9.51;100.00;99665.00;5077940;28;20019;-80
2023/12/13 12:10:22;;;;;;;;;;;;;;;9.45;100.00;99662.56;5085129;28;19919;-80
2023/12/13 12:12:51;;;;;;;;;;;;;;;9.35;100.00;99670.66;5077141;28;20288;-80
2023/12/13 12:15:16;;;;;;;;;;;;;;;9.31;100.00;99681.19;5093559;28;19999;-80
2023/12/13 12:17:41;;;;;;;;;;;;;;;9.28;100.00;99684.78;5114833;28;19994;-80
2023/12/13 12:20:10;;;;;;;;;;;;;;;9.26;100.00;99681.31;5110838;28;19915;-80
2023/12/13 12:22:36;;;;;;;;;;;;;;;9.21;100.00;99683.22;5090811;28;20377;-79
2023/12/13 12:25:01;;;;;;;;;;;;;;;9.23;100.00;99684.03;5077537;28;19947;-77
2023/12/13 12:27:27;;;;;;;;;;;;;;;9.20;100.00;99684.09;5090031;28;19916;-80
2023/12/13 12:29:52;;;;;;;;;;;;;;;9.21;100.00;99688.44;5080302;28;19927;-77
2023/12/13 12:32:18;;;;;;;;;;;;;;;9.23;100.00;99681.41;5108565;28;19922;-80
2023/12/13 12:34:47;;;;;;;;;;;;;;;9.31;100.00;99687.31;5081464;28;20304;-81
2023/12/13 12:37:12;;;;;;;;;;;;;;;9.36;100.00;99682.81;5077905;28;19935;-79
2023/12/13 12:39:37;;;;;;;;;;;;;;;9.45;100.00;99683.47;5061337;28;20662;-80